createdAt,value
2022-09-07T00:00:07.808Z,20.90
2022-09-07T00:06:11.833Z,20.90
2022-09-07T00:12:13.679Z,21.00
2022-09-07T00:18:15.606Z,21.10
2022-09-07T00:24:17.525Z,21.20
2022-09-07T00:30:19.400Z,21.10
2022-09-07T00:36:22.580Z,21.20
2022-09-07T00:42:24.446Z,21.00
2022-09-07T00:48:37.071Z,20.90
2022-09-07T00:54:46.671Z,20.80
2022-09-07T01:00:49.904Z,20.40
2022-09-07T01:06:54.006Z,20.20
2022-09-07T01:12:55.887Z,20.20
2022-09-07T01:19:25.753Z,20.40
2022-09-07T01:25:55.714Z,20.50
2022-09-07T01:31:57.391Z,20.70
2022-09-07T01:38:44.285Z,20.70
2022-09-07T01:45:11.583Z,20.80
2022-09-07T01:51:13.608Z,20.90
2022-09-07T01:57:21.275Z,20.90
2022-09-07T02:03:39.677Z,20.60
2022-09-07T02:09:59.887Z,20.70
2022-09-07T02:16:06.930Z,20.90
2022-09-07T02:22:19.406Z,20.70
2022-09-07T02:28:26.525Z,20.40
2022-09-07T02:34:28.466Z,20.20
2022-09-07T02:40:31.001Z,20.10
2022-09-07T02:47:20.713Z,19.90
2022-09-07T02:53:43.146Z,19.50
2022-09-07T03:00:01.472Z,19.40
2022-09-07T03:06:08.106Z,19.20
2022-09-07T03:12:10.564Z,19.10
2022-09-07T03:18:12.757Z,19.20
2022-09-07T03:24:14.514Z,19.20
2022-09-07T03:30:16.458Z,19.20
2022-09-07T03:36:18.261Z,19.20
2022-09-07T03:42:20.420Z,19.30
2022-09-07T03:48:22.158Z,19.20
2022-09-07T03:54:24.100Z,19.10
2022-09-07T04:00:26.107Z,19.00
2022-09-07T04:06:27.891Z,18.90
2022-09-07T04:12:29.832Z,19.00
2022-09-07T04:18:31.659Z,18.90
2022-09-07T04:24:33.505Z,18.90
2022-09-07T04:30:36.172Z,18.40
2022-09-07T04:36:38.028Z,18.20
2022-09-07T04:42:39.770Z,18.10
2022-09-07T04:48:41.495Z,18.10
2022-09-07T04:54:43.660Z,18.00
2022-09-07T05:00:45.546Z,18.20
2022-09-07T05:06:47.318Z,18.10
2022-09-07T05:12:49.173Z,18.20
2022-09-07T05:18:52.982Z,18.20
2022-09-07T05:24:54.767Z,18.40
2022-09-07T05:31:19.230Z,18.50
2022-09-07T05:37:21.723Z,18.40
2022-09-07T05:43:23.831Z,18.30
2022-09-07T05:49:25.629Z,18.30
2022-09-07T05:55:30.466Z,18.40
2022-09-07T06:01:32.818Z,18.50
2022-09-07T06:07:34.603Z,18.50
2022-09-07T06:13:36.763Z,18.50
2022-09-07T06:19:38.545Z,18.50
2022-09-07T06:25:48.558Z,18.60
2022-09-07T06:38:12.122Z,18.60
2022-09-07T06:44:13.906Z,18.60
2022-09-07T06:50:17.536Z,18.60
2022-09-07T06:56:19.584Z,18.60
2022-09-07T07:02:21.438Z,18.80
2022-09-07T07:08:25.526Z,18.80
2022-09-07T07:14:28.197Z,18.80
2022-09-07T07:20:31.849Z,18.80
2022-09-07T07:26:33.937Z,18.90
2022-09-07T07:32:37.798Z,19.00
2022-09-07T07:51:24.889Z,19.50
2022-09-07T07:57:26.846Z,19.60
2022-09-07T08:03:29.016Z,19.70
2022-09-07T08:09:30.831Z,19.80
2022-09-07T08:15:32.505Z,20.00
2022-09-07T08:21:34.340Z,20.20
2022-09-07T08:27:36.226Z,20.40
2022-09-07T08:33:38.500Z,20.70
2022-09-07T08:39:40.829Z,20.90
2022-09-07T08:45:52.666Z,21.00
2022-09-07T08:52:01.221Z,21.20
2022-09-07T08:58:52.242Z,21.40
2022-09-07T09:11:21.703Z,21.50
2022-09-07T09:17:33.853Z,21.70
2022-09-07T09:23:40.389Z,21.90
2022-09-07T09:29:42.681Z,22.10
2022-09-07T09:35:46.579Z,22.20
2022-09-07T09:41:49.995Z,22.50
2022-09-07T09:47:52.896Z,22.80
2022-09-07T09:54:02.849Z,22.80
2022-09-07T10:00:10.972Z,23.00
2022-09-07T10:06:19.758Z,23.10
2022-09-07T10:12:34.692Z,23.10
2022-09-07T10:18:39.708Z,22.90
2022-09-07T10:24:41.819Z,23.00
2022-09-07T10:31:15.769Z,22.80
2022-09-07T10:37:35.604Z,23.00
2022-09-07T10:43:52.719Z,23.10
2022-09-07T10:56:33.269Z,23.60
2022-09-07T11:09:48.468Z,23.70
2022-09-07T11:15:56.385Z,23.60
2022-09-07T11:22:22.534Z,23.40
2022-09-07T11:35:42.203Z,24.00
2022-09-07T11:41:54.040Z,24.20
2022-09-07T11:48:05.824Z,24.50
2022-09-07T11:54:36.728Z,24.70
2022-09-07T12:01:02.883Z,24.80
2022-09-07T12:07:16.862Z,25.10
2022-09-07T12:13:49.699Z,25.20
2022-09-07T12:20:12.782Z,25.30
2022-09-07T12:26:49.686Z,25.30
2022-09-07T12:32:54.253Z,25.40
2022-09-07T12:39:02.850Z,25.30
2022-09-07T12:45:29.315Z,25.60
2022-09-07T12:58:13.706Z,25.90
2022-09-07T13:04:18.425Z,26.10
2022-09-07T13:10:29.020Z,25.50
2022-09-07T13:23:22.908Z,25.70
2022-09-07T13:29:40.256Z,26.20
2022-09-07T13:35:45.578Z,25.90
2022-09-07T13:41:52.418Z,26.10
2022-09-07T13:48:03.029Z,26.30
2022-09-07T13:54:41.501Z,26.40
2022-09-07T14:00:58.874Z,26.10
2022-09-07T14:07:06.850Z,25.80
2022-09-07T14:13:12.636Z,25.20
2022-09-07T14:19:20.866Z,25.00
2022-09-07T14:25:22.844Z,25.10
2022-09-07T14:31:26.034Z,25.20
2022-09-07T14:37:28.278Z,25.20
2022-09-07T14:43:52.405Z,25.30
2022-09-07T14:49:58.054Z,25.00
2022-09-07T14:56:09.499Z,25.00
2022-09-07T15:02:38.188Z,25.30
2022-09-07T15:08:45.198Z,25.10
2022-09-07T15:14:47.986Z,25.20
2022-09-07T15:20:50.563Z,25.20
2022-09-07T15:27:08.527Z,25.40
2022-09-07T15:33:11.506Z,25.60
2022-09-07T15:39:16.935Z,25.60
2022-09-07T15:45:19.120Z,25.50
2022-09-07T15:57:59.538Z,25.10
2022-09-07T16:04:05.964Z,24.80
2022-09-07T16:10:08.933Z,24.40
2022-09-07T16:16:11.136Z,24.00
2022-09-07T16:23:13.184Z,23.90
2022-09-07T16:28:43.128Z,23.60
2022-09-07T16:34:45.022Z,23.30
2022-09-07T16:40:46.769Z,23.30
2022-09-07T16:46:48.858Z,23.20
2022-09-07T16:52:50.802Z,23.30
2022-09-07T16:58:55.845Z,23.10
2022-09-07T17:04:57.968Z,23.20
2022-09-07T17:11:07.318Z,23.10
2022-09-07T17:17:09.014Z,22.90
2022-09-07T17:23:10.958Z,22.80
2022-09-07T17:29:13.221Z,22.80
2022-09-07T17:35:15.246Z,22.70
2022-09-07T17:41:20.052Z,22.80
2022-09-07T17:47:22.018Z,22.80
2022-09-07T17:53:23.858Z,22.80
2022-09-07T18:05:52.893Z,22.60
2022-09-07T18:11:54.749Z,22.50
2022-09-07T18:17:58.457Z,22.40
2022-09-07T18:24:07.721Z,22.30
2022-09-07T18:30:10.937Z,22.30
2022-09-07T18:36:13.763Z,22.10
2022-09-07T18:42:15.700Z,21.90
2022-09-07T18:48:17.835Z,21.70
2022-09-07T18:54:19.627Z,21.50
2022-09-07T19:00:21.456Z,21.50
2022-09-07T19:06:24.933Z,21.40
2022-09-07T19:12:26.845Z,21.30
2022-09-07T19:18:28.613Z,21.20
2022-09-07T19:24:31.781Z,21.00
2022-09-07T19:30:35.239Z,20.80
2022-09-07T19:36:38.277Z,20.70
2022-09-07T19:42:40.038Z,20.60
2022-09-07T19:48:42.094Z,20.50
2022-09-07T19:54:43.963Z,20.50
2022-09-07T20:00:45.728Z,20.40
2022-09-07T20:06:50.238Z,20.30
2022-09-07T20:12:52.294Z,20.20
2022-09-07T20:18:54.308Z,20.20
2022-09-07T20:24:55.984Z,20.10
2022-09-07T20:30:57.998Z,20.00
2022-09-07T20:36:59.692Z,19.90
2022-09-07T20:43:01.463Z,19.80
2022-09-07T20:49:03.795Z,19.70
2022-09-07T20:55:05.989Z,19.70
2022-09-07T21:01:07.886Z,19.60
2022-09-07T21:07:09.699Z,19.50
2022-09-07T21:13:12.073Z,19.30
2022-09-07T21:19:13.845Z,19.20
2022-09-07T21:25:15.721Z,19.20
2022-09-07T21:31:17.591Z,19.20
2022-09-07T21:37:19.404Z,19.30
2022-09-07T21:43:23.131Z,19.30
2022-09-07T21:49:24.853Z,19.30
2022-09-07T21:55:26.729Z,19.30
2022-09-07T22:01:30.313Z,19.30
2022-09-07T22:07:32.137Z,19.30
2022-09-07T22:13:34.825Z,19.30
2022-09-07T22:19:37.989Z,19.30
2022-09-07T22:25:39.673Z,19.40
2022-09-07T22:31:42.141Z,19.40
2022-09-07T22:37:44.505Z,19.40
2022-09-07T22:43:47.450Z,19.30
2022-09-07T22:49:49.175Z,19.30
2022-09-07T22:55:50.949Z,19.30
2022-09-07T23:01:52.836Z,19.30
2022-09-07T23:07:54.658Z,19.30
2022-09-07T23:13:58.917Z,19.50
2022-09-07T23:20:00.616Z,19.50
2022-09-07T23:26:03.959Z,19.30
2022-09-07T23:32:05.910Z,19.10
2022-09-07T23:38:07.789Z,19.10
2022-09-07T23:44:09.538Z,19.00
2022-09-07T23:50:13.335Z,19.00
2022-09-07T23:56:15.146Z,19.00
